Villa Park, California
Current Conditions -  °F | °C
As of 6:53 PM on Friday 26 Dec 2014 (Local Time) from KSNA Reporting Station
Clear Clear  
Wind Chill: 58°   Ceiling: Unl
Heat Index: 58°   Visibility: 10mi
Dew Point: 15°   Wind: 5mph
Humidity: 19%   Direction: 330°NNW
Pressure: 30.13"   Gusts: NA
Location:  33.81°N, 117.82°W
Report Text: KSNA 270253Z 33004KT 10SM CLR 14/M09 A3013 RMK AO2 SLP202 T01441094 53024
Loading
Personal Weather Stations






























Interactive Weather Map New forecast layout! Learn more

10-Day Weather Forecast

Advertisements
Track Severe Weather on mobile